Silver Star, Montana
Current Conditions -  °F | °C
As of 3:53 AM on Wednesday 26 Nov 2014 (Local Time) from KBTM Reporting Station
Light Snow Light Snow  
Wind Chill: -3°   Ceiling: 2900
Heat Index: -3°   Visibility: 2.5mi
Dew Point: -4°   Wind: 0mph
Humidity: 92%   Direction: NA
Pressure: 30.06"   Gusts: NA
Location:  45.69°N, 112.28°W
Report Text: KBTM 261053Z AUTO 00000KT 2 1/2SM -SN BR SCT017 OVC029 M03/M04 A3006 RMK AO2 SLP213 P0001 T10281039
Loading
Personal Weather Stations






























Interactive Weather Map New forecast layout! Learn more

10-Day Weather Forecast

Advertisements
Track Severe Weather on mobile